Time;durP1;ratioP1;P1;durP2;ratioP2;P2;SDS_P1;SDS_P2;PMS_P1;PMS_P2;Temp;Humidity;BMP_temperature;BMP_pressure;BME280_temperature;BME280_humidity;BME280_pressure;Samples;Min_cycle;Max_cycle;Signal;HPM_P1;HPM_P2
2023/02/28 00:01:39;;;;;;;;;17.00;16.00;;;;;3.99;90.56;101949.94;4911080;29;45217;-84
2023/02/28 00:04:05;;;;;;;;;25.00;21.33;;;;;3.96;90.60;101947.13;4926374;28;45728;-83
2023/02/28 00:07:23;;;;;;;;;25.00;24.00;;;;;4.06;91.39;101956.50;4912094;29;45804;-84
2023/02/28 00:09:49;;;;;;;;;19.00;17.33;;;;;3.93;92.52;101961.84;4937778;28;44873;-83
2023/02/28 00:12:14;;;;;;;;;20.67;20.67;;;;;3.96;90.33;101959.41;4937111;28;44990;-82
2023/02/28 00:14:40;;;;;;;;;20.33;19.00;;;;;3.93;90.59;101951.31;4953956;28;44958;-83
2023/02/28 00:17:06;;;;;;;;;21.67;18.00;;;;;3.95;89.79;101962.84;4948967;28;46278;-83
2023/02/28 00:19:32;;;;;;;;;21.67;19.33;;;;;3.91;90.49;101956.47;4949462;28;44846;-84
2023/02/28 00:21:57;;;;;;;;;21.67;21.00;;;;;3.90;91.12;101964.25;4936571;28;45470;-83
2023/02/28 00:24:23;;;;;;;;;23.67;22.33;;;;;3.90;92.96;101966.91;4952807;28;44765;-83
2023/02/28 00:26:49;;;;;;;;;23.00;20.67;;;;;3.83;91.95;101962.09;4954386;28;45846;-83
2023/02/28 00:29:14;;;;;;;;;20.00;19.33;;;;;3.78;92.37;101969.72;4937317;28;45475;-83
2023/02/28 00:31:40;;;;;;;;;20.00;20.00;;;;;3.83;90.51;101975.25;4935948;28;45537;-83
2023/02/28 00:34:07;;;;;;;;;23.33;23.00;;;;;3.84;91.21;101969.16;4946409;28;45462;-83
2023/02/28 00:36:33;;;;;;;;;24.00;21.33;;;;;3.77;93.10;101970.50;4953768;28;45462;-83
2023/02/28 00:38:58;;;;;;;;;18.33;16.00;;;;;3.71;91.34;101962.25;4955857;28;44775;-83
2023/02/28 00:41:24;;;;;;;;;21.00;21.00;;;;;3.75;91.41;101969.50;4955564;28;45503;-83
2023/02/28 00:43:50;;;;;;;;;22.67;22.33;;;;;3.67;92.28;101963.78;4937710;28;44925;-83
2023/02/28 00:46:15;;;;;;;;;22.67;21.00;;;;;3.75;91.94;101978.31;4930180;28;44928;-83
2023/02/28 00:48:56;;;;;;;;;18.67;17.00;;;;;3.83;91.00;101983.16;4950215;28;45417;-83
2023/02/28 00:51:21;;;;;;;;;21.00;21.00;;;;;3.72;91.28;101986.03;4953072;28;45408;-83
2023/02/28 00:53:48;;;;;;;;;14.33;12.67;;;;;3.76;90.71;101981.88;4952756;28;45493;-83
2023/02/28 00:56:14;;;;;;;;;22.00;22.00;;;;;3.70;90.69;101971.88;4953366;28;47842;-82
2023/02/28 00:58:41;;;;;;;;;16.67;15.33;;;;;3.70;90.75;101977.13;4945831;28;45623;-83
2023/02/28 01:01:07;;;;;;;;;24.33;21.67;;;;;3.75;90.52;101985.28;4966875;28;45551;-85
2023/02/28 01:03:32;;;;;;;;;23.67;20.00;;;;;3.73;92.42;101982.56;4953748;28;44892;-85
2023/02/28 01:06:01;;;;;;;;;20.00;18.33;;;;;3.73;92.66;101998.34;4955005;28;45432;-84
2023/02/28 01:08:27;;;;;;;;;21.00;21.00;;;;;3.60;91.41;101969.50;4953583;28;44707;-84
2023/02/28 01:10:53;;;;;;;;;22.00;18.67;;;;;3.66;92.93;101985.66;4969709;28;45403;-83
2023/02/28 01:13:20;;;;;;;;;20.00;20.00;;;;;3.63;91.43;101984.53;4954661;28;44937;-82
2023/02/28 01:15:51;;;;;;;;;19.00;19.00;;;;;3.68;91.10;101994.53;4948317;28;47002;-84
2023/02/28 01:18:17;;;;;;;;;22.67;20.67;;;;;3.64;91.39;101995.16;4940252;28;45493;-83
2023/02/28 01:20:46;;;;;;;;;17.67;17.67;;;;;3.59;92.70;101991.31;4909420;28;45330;-83
2023/02/28 01:23:13;;;;;;;;;19.67;19.67;;;;;3.64;91.93;102002.16;4941339;28;45599;-83
2023/02/28 01:25:40;;;;;;;;;17.67;16.33;;;;;3.57;92.01;101990.31;4960155;28;45308;-84
2023/02/28 01:28:06;;;;;;;;;19.00;18.00;;;;;3.59;91.12;101999.22;4936219;28;45467;-84
2023/02/28 01:30:32;;;;;;;;;20.67;18.33;;;;;3.60;90.82;101998.41;4935792;28;45546;-83
2023/02/28 01:32:58;;;;;;;;;19.00;18.67;;;;;3.61;90.67;101997.59;4942688;28;45492;-84
2023/02/28 01:35:24;;;;;;;;;23.33;18.33;;;;;3.53;91.14;101983.97;4927288;28;47918;-84
2023/02/28 01:37:51;;;;;;;;;19.33;19.00;;;;;3.55;91.17;101986.69;4961550;28;45428;-83
2023/02/28 01:40:22;;;;;;;;;21.00;21.00;;;;;3.50;90.16;101982.88;4943900;28;45347;-84
2023/02/28 01:42:48;;;;;;;;;21.00;20.00;;;;;3.52;89.85;101992.69;4953749;28;44803;-84
2023/02/28 01:45:32;;;;;;;;;16.67;15.67;;;;;3.56;89.35;101991.16;4942549;28;46676;-84
2023/02/28 01:48:05;;;;;;;;;20.67;17.00;;;;;3.55;89.24;101997.22;4944288;28;45315;-84
2023/02/28 01:50:38;;;;;;;;;18.00;16.00;;;;;3.53;89.96;101980.44;4924231;28;45427;-84
2023/02/28 01:53:10;;;;;;;;;18.67;18.33;;;;;3.51;89.24;101984.69;4873681;28;45452;-84
2023/02/28 01:55:37;;;;;;;;;23.33;20.67;;;;;3.48;89.45;101979.25;4934468;28;45516;-84
2023/02/28 01:58:07;;;;;;;;;16.33;13.67;;;;;3.47;89.63;101977.41;4915391;29;45463;-84
2023/02/28 02:00:33;;;;;;;;;20.33;19.67;;;;;3.46;90.02;101987.03;4919108;28;45384;-84
2023/02/28 02:03:05;;;;;;;;;16.00;16.00;;;;;3.42;90.05;101965.72;4903319;29;45285;-83
2023/02/28 02:05:31;;;;;;;;;17.67;17.67;;;;;3.45;89.86;101976.41;4917957;29;45614;-84
2023/02/28 02:08:10;;;;;;;;;16.00;13.00;;;;;3.36;90.26;101955.72;4919111;28;45320;-84
2023/02/28 02:10:41;;;;;;;;;19.33;18.00;;;;;3.45;90.07;101968.53;4927049;28;45377;-83
2023/02/28 02:13:27;;;;;;;;;23.33;18.67;;;;;3.49;90.39;101973.16;4911541;29;45386;-84
2023/02/28 02:16:21;;;;;;;;;16.00;13.00;;;;;3.49;90.03;101975.78;4917631;29;46816;-83
2023/02/28 02:19:03;;;;;;;;;19.00;19.00;;;;;3.29;90.42;101946.53;4919787;28;45321;-83
2023/02/28 02:21:47;;;;;;;;;22.00;18.33;;;;;3.44;90.51;101969.34;4917687;29;44847;-83
2023/02/28 02:24:25;;;;;;;;;17.00;17.00;;;;;3.37;90.85;101970.66;4911813;29;45481;-83
2023/02/28 02:27:04;;;;;;;;;13.00;13.00;;;;;3.42;89.62;101968.34;4914299;29;46260;-84
2023/02/28 02:29:47;;;;;;;;;18.33;13.67;;;;;3.40;89.86;101963.88;4918778;28;45369;-83
2023/02/28 02:32:38;;;;;;;;;16.67;16.67;;;;;3.37;89.56;101961.06;4920517;29;45442;-82
2023/02/28 02:35:27;;;;;;;;;15.33;15.33;;;;;3.37;89.70;101965.41;4919602;29;44932;-84
2023/02/28 02:38:03;;;;;;;;;17.33;17.00;;;;;3.34;89.58;101960.88;4915495;28;47111;-82
2023/02/28 02:40:42;;;;;;;;;18.67;16.33;;;;;3.32;89.02;101954.59;4911069;29;44912;-83
2023/02/28 02:43:18;;;;;;;;;19.00;19.00;;;;;3.31;89.51;101955.44;4915239;29;45819;-83
2023/02/28 02:45:53;;;;;;;;;19.33;16.67;;;;;3.21;88.76;101950.38;4915556;28;45379;-82
2023/02/28 02:48:24;;;;;;;;;13.33;12.00;;;;;3.27;88.26;101961.28;4915689;29;45510;-84
2023/02/28 02:50:55;;;;;;;;;25.67;19.00;;;;;3.27;88.33;101961.28;4934546;28;45475;-82
2023/02/28 02:53:36;;;;;;;;;18.33;16.00;;;;;3.26;87.97;101972.63;4934220;28;44845;-82
2023/02/28 02:56:05;;;;;;;;;21.33;16.33;;;;;3.20;87.96;101961.72;4914506;28;45431;-83
2023/02/28 02:58:41;;;;;;;;;14.67;14.67;;;;;3.20;87.49;101962.63;4937322;28;45305;-83
2023/02/28 03:01:14;;;;;;;;;16.00;14.67;;;;;3.15;87.60;101958.81;4935843;28;45275;-82
2023/02/28 03:03:40;;;;;;;;;18.33;15.67;;;;;3.09;88.07;101949.59;4920643;28;45356;-84
2023/02/28 03:06:06;;;;;;;;;13.00;13.00;;;;;3.13;88.03;101962.13;4905446;28;45294;-83
2023/02/28 03:08:37;;;;;;;;;22.67;19.00;;;;;3.00;87.71;101929.81;4933483;28;45333;-83
2023/02/28 03:11:07;;;;;;;;;12.00;12.00;;;;;3.02;87.46;101934.28;4920183;28;45504;-82
2023/02/28 03:17:03;;;;;;;;;10.00;9.00;;;;;3.17;87.65;101961.50;4919783;29;44924;-82
2023/02/28 03:19:57;;;;;;;;;16.00;13.00;;;;;3.18;87.37;101964.25;4919299;28;45475;-83
2023/02/28 03:22:58;;;;;;;;;15.67;15.00;;;;;3.09;87.93;101957.47;4928821;28;45428;-83
2023/02/28 03:25:45;;;;;;;;;18.33;18.00;;;;;3.12;87.75;101962.97;4858458;29;44852;-83
2023/02/28 03:28:32;;;;;;;;;19.00;15.33;;;;;3.11;87.35;101967.31;4859860;29;44893;-83
2023/02/28 03:31:29;;;;;;;;;14.67;14.67;;;;;3.03;87.61;101964.97;4861332;29;45101;-83
2023/02/28 03:34:28;;;;;;;;;24.00;17.67;;;;;3.00;88.53;101968.31;4842249;29;45422;-83
2023/02/28 03:37:02;;;;;;;;;16.00;16.00;;;;;2.95;87.87;101975.00;4849382;29;45552;-83
2023/02/28 03:39:32;;;;;;;;;12.00;9.00;;;;;2.93;87.34;101972.28;4860571;29;45495;-82
2023/02/28 03:42:01;;;;;;;;;15.00;15.00;;;;;2.89;88.46;101962.41;4859241;29;46336;-83
2023/02/28 03:44:45;;;;;;;;;15.33;12.33;;;;;2.96;87.46;101972.47;4858429;29;45313;-84
2023/02/28 03:47:16;;;;;;;;;20.00;16.00;;;;;2.93;87.74;101971.34;4859433;29;45475;-82
2023/02/28 03:50:10;;;;;;;;;13.00;13.00;;;;;2.91;87.47;101967.72;4852906;29;45475;-83
2023/02/28 03:52:44;;;;;;;;;14.67;14.67;;;;;2.87;87.41;101966.63;4857476;29;45587;-83
2023/02/28 03:55:14;;;;;;;;;16.67;16.67;;;;;2.76;87.44;101954.50;4861885;29;44903;-84
2023/02/28 03:57:43;;;;;;;;;20.00;15.00;;;;;2.83;88.18;101968.94;4862850;29;45394;-84
2023/02/28 04:00:17;;;;;;;;;16.00;12.67;;;;;2.79;87.45;101967.88;4907611;28;45031;-83
2023/02/28 04:02:42;;;;;;;;;13.67;13.67;;;;;2.78;86.97;101966.94;4897519;29;47096;-82
2023/02/28 04:05:13;;;;;;;;;15.33;15.33;;;;;2.80;87.08;101974.91;4914326;29;45329;-83
2023/02/28 04:07:41;;;;;;;;;14.67;14.67;;;;;2.76;87.13;101967.66;4934325;28;45362;-83
2023/02/28 04:10:07;;;;;;;;;16.00;16.00;;;;;2.69;87.08;101970.69;4934273;28;44936;-83
2023/02/28 04:12:32;;;;;;;;;15.67;15.33;;;;;2.74;87.23;101974.53;4918554;29;45197;-84
2023/02/28 04:14:58;;;;;;;;;13.00;13.00;;;;;2.68;87.23;101976.75;4919884;28;45769;-82
2023/02/28 04:17:24;;;;;;;;;19.00;15.33;;;;;2.63;87.37;101975.56;4915079;29;45647;-84
2023/02/28 04:19:49;;;;;;;;;22.50;20.00;;;;;2.68;87.01;101982.00;4931212;28;44923;-85
2023/02/28 04:22:17;;;;;;;;;18.00;15.67;;;;;2.63;87.62;101967.66;4936719;28;45555;-82
2023/02/28 04:24:44;;;;;;;;;15.67;13.33;;;;;2.70;87.51;101988.25;4937571;28;44939;-84
2023/02/28 04:27:15;;;;;;;;;13.00;13.00;;;;;2.71;87.34;101985.75;4932308;28;44873;-83
2023/02/28 04:29:44;;;;;;;;;14.67;13.67;;;;;2.66;87.15;101991.50;4930476;28;45536;-83
2023/02/28 04:32:11;;;;;;;;;16.00;15.00;;;;;2.66;87.54;101989.78;4928610;28;45495;-84
2023/02/28 04:34:36;;;;;;;;;20.33;16.00;;;;;2.63;87.30;101992.22;4932692;28;45443;-83
2023/02/28 04:37:03;;;;;;;;;17.33;16.00;;;;;2.62;88.18;101994.72;4934325;28;45541;-82
2023/02/28 04:39:29;;;;;;;;;14.00;12.33;;;;;2.62;87.83;102005.22;4932218;28;45000;-83
2023/02/28 04:41:56;;;;;;;;;23.00;18.33;;;;;2.55;88.56;102004.81;4931174;28;47096;-83
2023/02/28 04:44:22;;;;;;;;;18.67;17.33;;;;;2.50;87.84;101990.47;4926602;28;45406;-82
2023/02/28 04:46:48;;;;;;;;;16.00;16.00;;;;;2.52;88.22;101999.34;4928890;28;45470;-83
2023/02/28 04:49:15;;;;;;;;;13.33;13.33;;;;;2.58;88.61;102010.25;4936660;28;45393;-82
2023/02/28 04:51:42;;;;;;;;;14.00;13.67;;;;;2.59;88.10;101998.06;4937137;28;46801;-84
2023/02/28 04:54:08;;;;;;;;;11.33;11.00;;;;;2.55;88.36;102003.91;4952859;28;45919;-82
2023/02/28 04:56:33;;;;;;;;;18.00;16.00;;;;;2.57;88.86;102018.97;4953102;28;44884;-83
2023/02/28 04:58:59;;;;;;;;;16.00;16.00;;;;;2.54;88.51;102013.50;4934266;28;45739;-84
2023/02/28 05:01:37;;;;;;;;;19.33;18.00;;;;;2.51;89.07;102005.44;4937382;28;47194;-85
2023/02/28 05:04:04;;;;;;;;;17.00;13.33;;;;;2.54;88.30;102005.63;4938940;28;45525;-84
2023/02/28 05:06:32;;;;;;;;;17.33;17.33;;;;;2.50;88.76;102003.59;4939842;28;44901;-83
2023/02/28 05:12:21;;;;;;;;;17.33;17.33;;;;;2.53;89.01;102022.19;4950013;28;45815;-82
2023/02/28 05:14:46;;;;;;;;;22.67;17.33;;;;;2.47;89.96;102020.88;4953610;28;44999;-83
2023/02/28 05:17:12;;;;;;;;;19.33;16.67;;;;;2.45;89.63;102022.50;4955525;28;45359;-83
2023/02/28 05:19:37;;;;;;;;;14.00;13.67;;;;;2.43;89.17;102022.38;4955027;28;45416;-83
2023/02/28 05:22:03;;;;;;;;;13.33;13.33;;;;;2.44;88.89;102021.56;4956784;28;45413;-83
2023/02/28 05:24:28;;;;;;;;;17.33;16.00;;;;;2.50;88.45;102032.47;4950406;28;44831;-83
2023/02/28 05:26:55;;;;;;;;;18.67;18.67;;;;;2.52;88.97;102028.25;4932881;28;45628;-83
2023/02/28 05:29:22;;;;;;;;;21.33;19.00;;;;;2.54;88.98;102038.84;4954493;28;44865;-83
2023/02/28 05:31:47;;;;;;;;;24.67;18.67;;;;;2.44;89.11;102031.16;4939091;28;47017;-84
2023/02/28 05:34:15;;;;;;;;;20.67;20.33;;;;;2.46;90.29;102038.31;4937595;28;45350;-84
2023/02/28 05:36:41;;;;;;;;;23.00;20.67;;;;;2.41;93.12;102050.25;4951287;28;45342;-82
2023/02/28 05:39:12;;;;;;;;;22.33;21.33;;;;;2.37;90.69;102038.63;4951631;28;44766;-83
2023/02/28 05:41:43;;;;;;;;;21.33;21.33;;;;;2.30;95.34;102040.72;4954077;28;46187;-82
2023/02/28 05:44:10;;;;;;;;;22.33;19.00;;;;;2.28;94.67;102042.34;4939071;28;45355;-84
2023/02/28 05:50:05;;;;;;;;;23.67;23.67;;;;;2.14;94.91;102037.06;4946967;28;45346;-83
2023/02/28 05:52:31;;;;;;;;;23.00;21.33;;;;;2.10;96.19;102037.66;4931045;28;45467;-82
2023/02/28 05:54:57;;;;;;;;;22.33;20.33;;;;;2.11;95.75;102036.84;4918990;28;45519;-84
2023/02/28 05:57:23;;;;;;;;;25.00;22.67;;;;;2.15;95.30;102046.75;4953152;28;44900;-85
2023/02/28 05:59:49;;;;;;;;;28.67;25.67;;;;;2.17;95.04;102045.13;4952709;28;44803;-83
2023/02/28 06:02:17;;;;;;;;;27.33;23.00;;;;;2.22;95.12;102055.94;4952329;28;45554;-82
2023/02/28 06:04:43;;;;;;;;;26.33;26.33;;;;;2.20;96.73;102048.00;4952046;28;45519;-83
2023/02/28 06:07:09;;;;;;;;;21.33;20.67;;;;;2.15;96.05;102044.13;4949012;28;44855;-83
2023/02/28 06:09:35;;;;;;;;;25.75;24.75;;;;;2.19;96.01;102048.78;4953013;28;44922;-82
2023/02/28 06:12:05;;;;;;;;;25.00;22.00;;;;;2.21;96.05;102048.88;4937398;28;46931;-84
2023/02/28 06:14:33;;;;;;;;;29.00;26.25;;;;;2.22;97.59;102060.28;4924798;28;45446;-83
2023/02/28 06:17:00;;;;;;;;;24.25;22.00;;;;;2.16;97.07;102051.19;4954902;28;45246;-82
2023/02/28 06:19:27;;;;;;;;;33.00;29.00;;;;;2.13;97.41;102043.09;4936394;28;45354;-82
2023/02/28 06:21:54;;;;;;;;;30.75;30.75;;;;;2.16;99.32;102050.28;4935046;28;47570;-82
2023/02/28 06:24:22;;;;;;;;;38.25;32.50;;;;;2.12;99.75;102051.78;4936527;28;45448;-82
2023/02/28 06:26:48;;;;;;;;;30.00;28.50;;;;;2.04;100.00;102058.22;4953350;28;45411;-81
2023/02/28 06:29:18;;;;;;;;;34.00;29.75;;;;;2.03;99.00;102055.50;4951757;28;45485;-82
2023/02/28 06:31:45;;;;;;;;;32.50;32.50;;;;;2.00;98.58;102054.47;4949094;28;45458;-82
2023/02/28 06:34:11;;;;;;;;;31.25;29.00;;;;;2.02;100.00;102062.47;4930743;28;45530;-82
2023/02/28 06:36:41;;;;;;;;;35.50;35.00;;;;;2.02;99.95;102057.22;4930331;28;45466;-82
2023/02/28 06:39:07;;;;;;;;;36.25;34.00;;;;;1.93;100.00;102056.56;4946459;28;45386;-83
2023/02/28 06:41:37;;;;;;;;;34.00;33.25;;;;;1.95;100.00;102060.19;4946158;28;45214;-82
2023/02/28 06:44:05;;;;;;;;;33.00;31.75;;;;;2.01;100.00;102071.13;4947811;28;45383;-82
2023/02/28 06:46:32;;;;;;;;;45.00;39.00;;;;;2.03;100.00;102068.63;4930799;28;45372;-82
2023/02/28 06:48:57;;;;;;;;;38.50;36.00;;;;;2.04;100.00;102059.91;4943836;28;45412;-82
2023/02/28 06:51:24;;;;;;;;;46.00;37.50;;;;;2.04;100.00;102052.03;4943637;28;45641;-83
2023/02/28 06:53:50;;;;;;;;;43.50;42.00;;;;;2.02;100.00;102059.84;4945189;28;45411;-83
2023/02/28 06:56:54;;;;;;;;;40.25;37.00;;;;;2.15;100.00;102065.13;4946643;28;45520;-82
2023/02/28 06:59:20;;;;;;;;;35.50;34.75;;;;;2.03;100.00;102064.25;4946363;28;44829;-83
2023/02/28 07:01:46;;;;;;;;;37.00;31.75;;;;;2.00;100.00;102046.59;4945956;28;46565;-82
2023/02/28 07:04:12;;;;;;;;;39.25;39.25;;;;;2.11;100.00;102062.19;4946127;28;45467;-81
2023/02/28 07:06:38;;;;;;;;;33.75;31.00;;;;;2.07;100.00;102055.81;4946412;28;45465;-82
2023/02/28 07:09:53;;;;;;;;;36.00;34.50;;;;;2.25;100.00;102063.13;4943780;28;45408;-82
2023/02/28 07:12:19;;;;;;;;;40.00;39.25;;;;;2.18;100.00;102064.41;4943402;28;47675;-83
2023/02/28 07:14:44;;;;;;;;;44.00;37.75;;;;;2.13;100.00;102050.97;4927576;28;44833;-83
2023/02/28 07:17:11;;;;;;;;;26.25;26.00;;;;;2.24;100.00;102063.94;4931546;28;45377;-84
2023/02/28 07:19:38;;;;;;;;;46.00;37.75;;;;;2.22;100.00;102049.78;4945485;28;44908;-83
2023/02/28 07:22:06;;;;;;;;;37.50;32.75;;;;;2.34;100.00;102063.75;4944119;28;45725;-83
2023/02/28 07:24:32;;;;;;;;;40.00;39.25;;;;;2.31;100.00;102058.31;4950884;28;45549;-84
2023/02/28 07:27:06;;;;;;;;;39.25;39.25;;;;;2.37;100.00;102056.09;4963002;28;44807;-84
2023/02/28 07:29:32;;;;;;;;;47.00;39.50;;;;;2.32;100.00;102065.38;4934370;28;45413;-83
2023/02/28 07:31:57;;;;;;;;;45.75;41.75;;;;;2.27;100.00;102056.28;4944235;28;45564;-83
2023/02/28 07:34:25;;;;;;;;;49.75;41.50;;;;;2.29;100.00;102052.03;4947954;28;44920;-83
2023/02/28 07:36:54;;;;;;;;;33.00;33.00;;;;;2.41;100.00;102068.63;4947509;28;45438;-83
2023/02/28 07:39:21;;;;;;;;;39.25;33.00;;;;;2.43;100.00;102067.03;4945874;28;45624;-83
2023/02/28 07:41:47;;;;;;;;;43.00;38.25;;;;;2.46;100.00;102072.47;4912904;28;47032;-83
2023/02/28 07:44:15;;;;;;;;;43.75;40.75;;;;;2.48;100.00;102076.09;4945442;28;44822;-83
2023/02/28 07:46:41;;;;;;;;;36.75;36.25;;;;;2.54;100.00;102080.88;4949225;28;44877;-83
2023/02/28 07:49:07;;;;;;;;;42.50;38.00;;;;;2.60;100.00;102087.44;4946590;28;45357;-83
2023/02/28 07:51:32;;;;;;;;;40.50;35.25;;;;;2.58;100.00;102061.88;4944669;28;45399;-83
2023/02/28 07:53:58;;;;;;;;;32.50;30.50;;;;;2.72;100.00;102081.22;4927969;28;45691;-83
2023/02/28 07:56:26;;;;;;;;;34.75;33.00;;;;;2.75;100.00;102082.34;4947581;28;44775;-83
2023/02/28 07:58:57;;;;;;;;;39.75;36.00;;;;;2.74;100.00;102082.22;4932441;28;45490;-84
2023/02/28 08:01:22;;;;;;;;;37.50;33.75;;;;;2.74;100.00;102085.75;4931932;28;47082;-84
2023/02/28 08:03:48;;;;;;;;;38.00;36.25;;;;;2.75;100.00;102084.97;4930743;28;45488;-84
2023/02/28 08:06:19;;;;;;;;;44.50;40.50;;;;;2.76;100.00;102077.97;4931130;28;45615;-84
2023/02/28 08:08:45;;;;;;;;;44.25;40.25;;;;;2.76;100.00;102083.22;4934076;28;45772;-85
2023/02/28 08:11:11;;;;;;;;;39.75;34.50;;;;;2.83;100.00;102090.72;4930143;28;46649;-85
2023/02/28 08:13:36;;;;;;;;;47.00;40.75;;;;;2.86;100.00;102084.75;4948348;28;45449;-84
2023/02/28 08:16:02;;;;;;;;;30.00;27.00;;;;;2.97;100.00;102089.94;4948083;28;44974;-84
2023/02/28 08:18:28;;;;;;;;;36.00;30.75;;;;;2.95;100.00;102086.28;4965388;28;45025;-85
2023/02/28 08:20:57;;;;;;;;;50.00;43.00;;;;;3.00;100.00;102092.75;4937048;28;47202;-86
2023/02/28 08:23:23;;;;;;;;;42.00;38.50;;;;;2.88;100.00;102063.03;4934706;28;45463;-85
2023/02/28 08:26:02;;;;;;;;;37.50;34.00;;;;;3.14;100.00;102095.38;4931527;28;45272;-85
2023/02/28 08:28:28;;;;;;;;;39.25;36.50;;;;;2.97;100.00;102063.66;5140219;23;46637;-85
2023/02/28 08:30:54;;;;;;;;;44.50;40.00;;;;;3.07;100.00;102059.91;4940148;28;46288;-85
2023/02/28 08:33:22;;;;;;;;;42.50;41.25;;;;;3.30;100.00;102095.59;4929532;28;45409;-85
2023/02/28 08:35:48;;;;;;;;;48.00;41.75;;;;;3.31;98.98;102084.28;4917684;28;45453;-85
2023/02/28 08:38:14;;;;;;;;;51.00;41.50;;;;;3.37;99.24;102082.03;4913299;28;45865;-83
2023/02/28 08:44:03;;;;;;;;;33.50;31.50;;;;;3.45;97.38;102068.47;4932093;28;45371;-84
2023/02/28 08:47:05;;;;;;;;;41.50;40.25;;;;;3.60;97.56;102091.38;4935170;28;45409;-85
2023/02/28 08:49:33;;;;;;;;;34.00;32.00;;;;;3.64;97.54;102096.88;4936620;28;45086;-85
2023/02/28 08:52:02;;;;;;;;;41.75;38.75;;;;;3.43;97.63;102065.72;4924918;28;47814;-84
2023/02/28 08:54:30;;;;;;;;;40.50;37.75;;;;;3.43;96.90;102056.94;4929845;28;45459;-84
2023/02/28 08:56:56;;;;;;;;;42.25;40.25;;;;;3.75;97.11;102080.03;4932433;28;44976;-84
2023/02/28 08:59:22;;;;;;;;;38.75;38.75;;;;;3.85;96.95;102082.41;4933474;28;45335;-85
2023/02/28 09:01:48;;;;;;;;;42.75;38.00;;;;;3.86;94.09;102067.53;4918670;29;45529;-85
2023/02/28 09:04:14;;;;;;;;;31.00;27.25;;;;;3.86;93.54;102070.16;4928904;28;44897;-86
2023/02/28 09:06:51;;;;;;;;;37.00;33.00;;;;;3.80;93.33;102057.56;4950704;28;45630;-84
2023/02/28 09:09:57;;;;;;;;;29.00;25.50;;;;;4.11;91.48;102086.66;4933341;28;45036;-86
2023/02/28 09:12:55;;;;;;;;;42.67;39.00;;;;;4.13;92.28;102090.31;4922958;28;45670;-86
2023/02/28 09:15:27;;;;;;;;;30.75;28.75;;;;;4.19;89.42;102093.31;4927771;28;45387;-86
2023/02/28 09:18:01;;;;;;;;;42.25;32.50;;;;;4.18;90.57;102082.69;4913889;28;45800;-83
2023/02/28 09:20:57;;;;;;;;;37.50;33.25;;;;;4.23;90.89;102075.09;4928933;28;44936;-85
2023/02/28 09:23:57;;;;;;;;;;;;;;;;;;;;;
2023/02/28 09:29:40;;;;;;;;;37.00;34.25;;;;;4.53;90.81;102092.75;5120077;23;46467;-85
2023/02/28 09:32:06;;;;;;;;;42.00;35.33;;;;;4.57;88.60;102089.47;4963895;28;45348;-85
2023/02/28 09:34:31;;;;;;;;;36.33;32.33;;;;;4.46;86.64;102068.56;4954956;28;45423;-85
2023/02/28 09:36:58;;;;;;;;;33.33;33.33;;;;;4.55;86.33;102103.38;4962935;28;45695;-85
2023/02/28 09:56:39;;;;;;;;;36.50;34.50;;;;;4.98;87.80;102083.09;4957016;28;45374;-85
2023/02/28 10:02:03;;;;;;;;;29.33;28.67;;;;;4.98;85.93;102069.00;5260562;23;46607;-84
2023/02/28 10:04:43;;;;;;;;;32.00;26.67;;;;;4.91;84.41;102075.66;4956141;28;45595;-84
2023/02/28 10:07:58;;;;;;;;;20.33;20.00;;;;;5.03;81.88;102075.47;4955400;28;44892;-85
2023/02/28 10:10:53;;;;;;;;;26.33;24.67;;;;;5.10;84.17;102061.81;4965511;28;45560;-84
2023/02/28 10:13:44;;;;;;;;;24.00;22.67;;;;;5.13;81.85;102051.44;4972574;28;45381;-84
2023/02/28 10:16:46;;;;;;;;;29.33;25.67;;;;;5.22;81.58;102080.06;4970456;28;44946;-85
2023/02/28 10:19:32;;;;;;;;;28.33;24.00;;;;;5.11;79.32;102068.91;4946628;28;45522;-85
2023/02/28 10:22:22;;;;;;;;;28.67;28.33;;;;;5.08;81.14;102065.19;4950113;28;46996;-84
2023/02/28 10:24:51;;;;;;;;;33.33;29.67;;;;;4.94;83.58;102049.47;4951883;28;45426;-84
2023/02/28 10:27:25;;;;;;;;;29.00;25.00;;;;;4.86;84.30;102050.75;4963104;28;44896;-83
2023/02/28 10:29:55;;;;;;;;;34.67;30.33;;;;;4.80;83.70;102032.84;4948016;28;45644;-83
2023/02/28 10:32:29;;;;;;;;;30.33;26.33;;;;;4.79;82.66;102030.16;4963434;28;45651;-85
2023/02/28 10:35:07;;;;;;;;;32.00;25.67;;;;;4.88;83.55;102033.31;4966714;28;45769;-84
2023/02/28 10:37:37;;;;;;;;;13.67;13.67;;;;;5.03;81.68;102040.28;4951509;28;45598;-85
2023/02/28 10:40:24;;;;;;;;;26.67;26.67;;;;;5.21;81.71;102009.66;4967433;28;45538;-85
2023/02/28 10:43:15;;;;;;;;;24.00;22.67;;;;;5.30;80.60;102002.28;4957266;28;45812;-84
2023/02/28 10:46:27;;;;;;;;;32.67;26.33;;;;;5.61;80.34;102017.16;4962196;28;45457;-86
2023/02/28 10:49:06;;;;;;;;;26.67;26.67;;;;;5.73;75.82;101986.16;4949512;28;45554;-85
2023/02/28 10:54:19;;;;;;;;;25.67;23.67;;;;;6.18;76.13;102007.94;5067023;23;46021;-86
2023/02/28 10:57:04;;;;;;;;;13.00;9.67;;;;;6.35;67.07;102014.09;4969425;28;45584;-85
2023/02/28 10:59:31;;;;;;;;;17.67;16.67;;;;;6.52;60.07;102019.34;4975242;28;44790;-86
2023/02/28 11:02:00;;;;;;;;;17.33;17.33;;;;;6.57;61.74;102012.56;4975656;28;45411;-86
2023/02/28 11:04:37;;;;;;;;;18.33;18.33;;;;;6.56;56.03;102003.72;4972875;28;45526;-84
2023/02/28 11:07:25;;;;;;;;;21.67;15.33;;;;;6.52;54.79;102007.03;4953741;28;45184;-85
2023/02/28 11:09:53;;;;;;;;;16.33;14.33;;;;;6.41;56.06;102008.22;4956566;28;45431;-85
2023/02/28 11:12:25;;;;;;;;;16.00;13.67;;;;;6.42;55.90;102004.75;4958112;28;45308;-85
2023/02/28 11:15:17;;;;;;;;;18.00;15.33;;;;;6.46;57.41;102009.34;4976078;28;45157;-86
2023/02/28 11:18:16;;;;;;;;;17.00;15.00;;;;;6.60;54.63;101992.47;4962147;28;45681;-86
2023/02/28 11:20:41;;;;;;;;;17.67;17.67;;;;;6.50;54.86;101992.81;4944452;28;45439;-86
2023/02/28 11:23:15;;;;;;;;;16.67;16.00;;;;;6.67;57.58;101992.78;4965455;28;45747;-85
2023/02/28 11:26:14;;;;;;;;;12.67;7.67;;;;;6.71;53.07;101997.41;4951302;28;45569;-85
2023/02/28 11:29:11;;;;;;;;;9.33;9.33;;;;;6.66;52.69;101993.59;5250093;23;45988;-85
2023/02/28 11:32:05;;;;;;;;;13.00;10.00;;;;;6.72;54.59;101989.53;4963580;28;44769;-86
2023/02/28 11:34:48;;;;;;;;;11.00;11.00;;;;;6.55;50.83;101949.03;4961644;28;45400;-85
2023/02/28 11:40:46;;;;;;;;;18.00;13.67;;;;;6.77;51.27;101977.44;4958330;28;44872;-85
2023/02/28 11:43:50;;;;;;;;;13.67;13.67;;;;;6.75;53.56;101959.72;4972810;28;44846;-86
2023/02/28 11:47:23;;;;;;;;;12.00;12.00;;;;;6.75;50.80;101933.28;4968626;28;44793;-86
2023/02/28 11:50:17;;;;;;;;;15.00;15.00;;;;;6.94;53.44;101970.31;4958790;28;45196;-85
2023/02/28 11:53:21;;;;;;;;;15.00;13.33;;;;;6.96;53.56;101949.25;4987345;28;44794;-84
2023/02/28 11:57:02;;;;;;;;;12.33;12.33;;;;;7.11;53.13;101955.28;4975328;28;45333;-87
2023/02/28 12:00:09;;;;;;;;;18.00;18.00;;;;;7.03;53.05;101947.81;4876374;29;44989;-84
2023/02/28 12:07:10;;;;;;;;;20.33;19.00;;;;;6.81;51.69;101944.13;4915284;29;45454;-85
2023/02/28 12:10:14;;;;;;;;;19.33;19.33;;;;;6.52;51.82;101916.25;4870183;29;44819;-86
2023/02/28 12:13:20;;;;;;;;;13.00;13.00;;;;;6.65;50.68;101955.69;4863591;28;45357;-86
2023/02/28 12:16:22;;;;;;;;;14.00;12.33;;;;;6.37;51.98;101919.06;4889551;29;45502;-85
2023/02/28 12:24:46;;;;;;;;;22.00;17.67;;;;;6.61;52.91;101932.59;4056164;23;28992598;-85
2023/02/28 12:30:07;;;;;;;;;16.33;16.33;;;;;6.51;51.26;101925.03;5823962;23;46847;-85
2023/02/28 12:32:54;;;;;;;;;9.67;9.67;;;;;6.45;50.28;101920.34;4955018;28;44708;-86
2023/02/28 12:35:51;;;;;;;;;17.67;15.00;;;;;6.26;50.35;101868.34;4972558;28;45517;-84
2023/02/28 12:39:14;;;;;;;;;12.33;12.00;;;;;6.58;52.74;101914.84;4973831;28;44782;-84
2023/02/28 12:41:59;;;;;;;;;12.00;11.00;;;;;6.36;50.28;101851.19;4971885;28;45468;-84
2023/02/28 12:44:33;;;;;;;;;17.67;14.33;;;;;6.32;48.69;101849.22;4970293;28;45386;-84